Terminal Aerodrome Forecast
Issued by NWS

Home | Current Version | Previous Version | Text Only | Print | Product List | Glossary On
Versions: 1 2 3 4 5 6 7 8 9 10 11 12 13 14 15 16
000
FTUS45 KTFX 052320
TAFLWT
TAF
KLWT 052320Z 0600/0624 16011KT P6SM -SHRA SCT040 OVC080
      TEMPO 0600/0604 VRB20G30KT -TSRA BKN040CB
     FM060600 27011KT P6SM -RA SCT020 OVC040
     FM061200 30010KT P6SM BKN100=

USA.gov is the U.S. government's official web portal to all federal, state and local government web resources and services.